Terminal Aerodrome Forecast
Issued by NWS Twin Cities, MN

Home | Current Version | Previous Version | Graphics & Text | Print | Product List | Glossary On
Versions: 1 2 3 4 5 6 7 8 9 10 11 12 13 14 15 16 17 18 19 20 21 22 23 24 25 26 27 28 29
329
FTUS43 KMPX 040810 AAA
TAFMSP
TAF AMD
KMSP 040810Z 0408/0512 14008KT 4SM -SN BR SCT008 OVC012
      TEMPO 0408/0412 2SM -SN BKN008
     FM041800 19008KT P6SM OVC018
     FM042000 24009KT P6SM BKN025 OVC050=

USA.gov is the U.S. government's official web portal to all federal, state and local government web resources and services.